sensor_id;sensor_type;location;lat;lon;timestamp;P1;durP1;ratioP1;P2;durP2;ratioP2
63714;SDS011;49858;48.956;9.076;2022-10-18T00:00:53;14.60;;;7.63;;
63714;SDS011;49858;48.956;9.076;2022-10-18T00:03:21;15.13;;;7.70;;
63714;SDS011;49858;48.956;9.076;2022-10-18T00:05:49;20.27;;;8.20;;
63714;SDS011;49858;48.956;9.076;2022-10-18T00:08:19;13.07;;;7.68;;
63714;SDS011;49858;48.956;9.076;2022-10-18T00:10:47;14.68;;;7.30;;
63714;SDS011;49858;48.956;9.076;2022-10-18T00:13:15;18.98;;;8.20;;
63714;SDS011;49858;48.956;9.076;2022-10-18T00:15:46;13.32;;;8.05;;
63714;SDS011;49858;48.956;9.076;2022-10-18T00:18:15;14.02;;;8.40;;
63714;SDS011;49858;48.956;9.076;2022-10-18T00:20:43;13.63;;;8.43;;
63714;SDS011;49858;48.956;9.076;2022-10-18T00:23:11;15.10;;;7.88;;
63714;SDS011;49858;48.956;9.076;2022-10-18T00:25:40;18.20;;;8.88;;
63714;SDS011;49858;48.956;9.076;2022-10-18T00:28:08;12.95;;;8.15;;
63714;SDS011;49858;48.956;9.076;2022-10-18T00:30:36;14.00;;;7.80;;
63714;SDS011;49858;48.956;9.076;2022-10-18T00:33:04;15.80;;;7.53;;
63714;SDS011;49858;48.956;9.076;2022-10-18T00:35:33;20.27;;;8.57;;
63714;SDS011;49858;48.956;9.076;2022-10-18T00:38:01;16.30;;;7.55;;
63714;SDS011;49858;48.956;9.076;2022-10-18T00:40:28;12.02;;;7.95;;
63714;SDS011;49858;48.956;9.076;2022-10-18T00:42:57;12.40;;;7.78;;
63714;SDS011;49858;48.956;9.076;2022-10-18T00:45:25;18.48;;;8.50;;
63714;SDS011;49858;48.956;9.076;2022-10-18T00:47:54;12.60;;;7.63;;
63714;SDS011;49858;48.956;9.076;2022-10-18T00:50:27;12.95;;;7.13;;
63714;SDS011;49858;48.956;9.076;2022-10-18T00:53:00;16.65;;;6.68;;
63714;SDS011;49858;48.956;9.076;2022-10-18T00:55:30;9.77;;;6.07;;
63714;SDS011;49858;48.956;9.076;2022-10-18T00:58:00;11.60;;;6.63;;
63714;SDS011;49858;48.956;9.076;2022-10-18T01:00:29;10.07;;;6.40;;
63714;SDS011;49858;48.956;9.076;2022-10-18T01:02:57;15.85;;;6.47;;
63714;SDS011;49858;48.956;9.076;2022-10-18T01:05:25;16.85;;;7.15;;
63714;SDS011;49858;48.956;9.076;2022-10-18T01:10:55;15.13;;;7.93;;
63714;SDS011;49858;48.956;9.076;2022-10-18T01:13:37;16.35;;;8.15;;
63714;SDS011;49858;48.956;9.076;2022-10-18T01:16:15;18.13;;;6.50;;
63714;SDS011;49858;48.956;9.076;2022-10-18T01:18:48;10.75;;;7.00;;
63714;SDS011;49858;48.956;9.076;2022-10-18T01:21:24;8.80;;;6.32;;
63714;SDS011;49858;48.956;9.076;2022-10-18T01:32:54;11.95;;;6.97;;
63714;SDS011;49858;48.956;9.076;2022-10-18T01:35:28;11.38;;;6.80;;
63714;SDS011;49858;48.956;9.076;2022-10-18T01:38:01;12.10;;;6.80;;
63714;SDS011;49858;48.956;9.076;2022-10-18T01:40:32;14.18;;;7.30;;
63714;SDS011;49858;48.956;9.076;2022-10-18T01:43:01;12.65;;;7.00;;
63714;SDS011;49858;48.956;9.076;2022-10-18T01:45:37;11.80;;;7.10;;
63714;SDS011;49858;48.956;9.076;2022-10-18T01:48:05;13.20;;;7.47;;
63714;SDS011;49858;48.956;9.076;2022-10-18T01:50:33;15.48;;;7.50;;
63714;SDS011;49858;48.956;9.076;2022-10-18T01:53:01;15.73;;;7.47;;
63714;SDS011;49858;48.956;9.076;2022-10-18T01:55:30;13.45;;;7.68;;
63714;SDS011;49858;48.956;9.076;2022-10-18T01:58:02;10.18;;;7.18;;
63714;SDS011;49858;48.956;9.076;2022-10-18T02:00:36;15.27;;;7.82;;
63714;SDS011;49858;48.956;9.076;2022-10-18T02:03:10;13.70;;;7.63;;
63714;SDS011;49858;48.956;9.076;2022-10-18T02:05:44;14.25;;;7.68;;
63714;SDS011;49858;48.956;9.076;2022-10-18T02:08:22;13.57;;;7.43;;
63714;SDS011;49858;48.956;9.076;2022-10-18T02:10:55;16.73;;;6.97;;
63714;SDS011;49858;48.956;9.076;2022-10-18T02:13:28;16.38;;;7.07;;
63714;SDS011;49858;48.956;9.076;2022-10-18T02:18:33;15.68;;;6.78;;
63714;SDS011;49858;48.956;9.076;2022-10-18T02:21:03;13.70;;;7.32;;
63714;SDS011;49858;48.956;9.076;2022-10-18T02:23:33;14.18;;;7.00;;
63714;SDS011;49858;48.956;9.076;2022-10-18T02:26:02;13.88;;;7.15;;
63714;SDS011;49858;48.956;9.076;2022-10-18T02:28:30;14.20;;;7.22;;
63714;SDS011;49858;48.956;9.076;2022-10-18T02:31:03;11.57;;;7.32;;
63714;SDS011;49858;48.956;9.076;2022-10-18T02:33:40;14.55;;;6.97;;
63714;SDS011;49858;48.956;9.076;2022-10-18T02:36:14;11.27;;;6.47;;
63714;SDS011;49858;48.956;9.076;2022-10-18T02:38:46;13.43;;;7.22;;
63714;SDS011;49858;48.956;9.076;2022-10-18T02:41:22;12.50;;;6.27;;
63714;SDS011;49858;48.956;9.076;2022-10-18T02:43:51;10.32;;;6.80;;
63714;SDS011;49858;48.956;9.076;2022-10-18T02:46:21;11.90;;;7.00;;
63714;SDS011;49858;48.956;9.076;2022-10-18T02:48:49;15.35;;;6.28;;
63714;SDS011;49858;48.956;9.076;2022-10-18T02:51:17;15.55;;;7.25;;
63714;SDS011;49858;48.956;9.076;2022-10-18T02:53:45;15.85;;;8.43;;
63714;SDS011;49858;48.956;9.076;2022-10-18T02:56:13;11.48;;;6.13;;
63714;SDS011;49858;48.956;9.076;2022-10-18T02:58:40;12.05;;;7.13;;
63714;SDS011;49858;48.956;9.076;2022-10-18T03:01:08;13.00;;;6.70;;
63714;SDS011;49858;48.956;9.076;2022-10-18T03:03:37;11.10;;;6.68;;
63714;SDS011;49858;48.956;9.076;2022-10-18T03:06:05;11.13;;;6.45;;
63714;SDS011;49858;48.956;9.076;2022-10-18T03:08:33;14.63;;;6.70;;
63714;SDS011;49858;48.956;9.076;2022-10-18T03:11:02;10.75;;;6.60;;
63714;SDS011;49858;48.956;9.076;2022-10-18T03:13:30;10.82;;;6.22;;
63714;SDS011;49858;48.956;9.076;2022-10-18T03:15:59;12.55;;;6.22;;
63714;SDS011;49858;48.956;9.076;2022-10-18T03:18:27;10.75;;;6.43;;
63714;SDS011;49858;48.956;9.076;2022-10-18T03:20:56;12.18;;;6.25;;
63714;SDS011;49858;48.956;9.076;2022-10-18T03:23:24;11.90;;;7.20;;
63714;SDS011;49858;48.956;9.076;2022-10-18T03:25:52;13.35;;;6.55;;
63714;SDS011;49858;48.956;9.076;2022-10-18T03:28:19;8.52;;;6.18;;
63714;SDS011;49858;48.956;9.076;2022-10-18T03:30:47;11.50;;;6.03;;
63714;SDS011;49858;48.956;9.076;2022-10-18T03:33:15;13.75;;;7.05;;
63714;SDS011;49858;48.956;9.076;2022-10-18T03:35:42;12.48;;;7.20;;
63714;SDS011;49858;48.956;9.076;2022-10-18T03:38:12;11.13;;;6.68;;
63714;SDS011;49858;48.956;9.076;2022-10-18T03:40:39;10.55;;;6.93;;
63714;SDS011;49858;48.956;9.076;2022-10-18T03:43:07;13.35;;;6.65;;
63714;SDS011;49858;48.956;9.076;2022-10-18T03:45:35;10.38;;;6.30;;
63714;SDS011;49858;48.956;9.076;2022-10-18T03:48:03;11.52;;;6.05;;
63714;SDS011;49858;48.956;9.076;2022-10-18T03:50:31;11.77;;;6.47;;
63714;SDS011;49858;48.956;9.076;2022-10-18T03:52:59;7.82;;;5.75;;
63714;SDS011;49858;48.956;9.076;2022-10-18T03:55:28;13.75;;;6.35;;
63714;SDS011;49858;48.956;9.076;2022-10-18T03:57:55;13.65;;;5.95;;
63714;SDS011;49858;48.956;9.076;2022-10-18T04:00:23;14.00;;;6.95;;
63714;SDS011;49858;48.956;9.076;2022-10-18T04:02:51;10.98;;;6.72;;
63714;SDS011;49858;48.956;9.076;2022-10-18T04:05:21;11.45;;;6.03;;
63714;SDS011;49858;48.956;9.076;2022-10-18T04:07:52;12.25;;;6.68;;
63714;SDS011;49858;48.956;9.076;2022-10-18T04:10:20;9.02;;;5.93;;
63714;SDS011;49858;48.956;9.076;2022-10-18T04:12:49;9.63;;;5.70;;
63714;SDS011;49858;48.956;9.076;2022-10-18T04:15:16;10.10;;;5.78;;
63714;SDS011;49858;48.956;9.076;2022-10-18T04:17:44;7.43;;;5.38;;
63714;SDS011;49858;48.956;9.076;2022-10-18T04:20:12;12.80;;;5.82;;
63714;SDS011;49858;48.956;9.076;2022-10-18T04:22:40;8.52;;;5.47;;
63714;SDS011;49858;48.956;9.076;2022-10-18T04:25:08;11.75;;;5.40;;
63714;SDS011;49858;48.956;9.076;2022-10-18T04:27:35;10.57;;;5.45;;
63714;SDS011;49858;48.956;9.076;2022-10-18T04:30:05;13.85;;;6.00;;
63714;SDS011;49858;48.956;9.076;2022-10-18T04:32:34;8.18;;;5.25;;
63714;SDS011;49858;48.956;9.076;2022-10-18T04:35:02;10.60;;;5.30;;
63714;SDS011;49858;48.956;9.076;2022-10-18T04:37:30;9.52;;;5.32;;
63714;SDS011;49858;48.956;9.076;2022-10-18T04:39:58;10.02;;;5.70;;
63714;SDS011;49858;48.956;9.076;2022-10-18T04:42:26;9.23;;;5.88;;
63714;SDS011;49858;48.956;9.076;2022-10-18T04:44:54;8.73;;;5.47;;
63714;SDS011;49858;48.956;9.076;2022-10-18T04:47:23;9.65;;;5.70;;
63714;SDS011;49858;48.956;9.076;2022-10-18T04:49:51;12.35;;;6.18;;
63714;SDS011;49858;48.956;9.076;2022-10-18T04:52:18;8.70;;;5.90;;
63714;SDS011;49858;48.956;9.076;2022-10-18T04:54:46;12.77;;;5.82;;
63714;SDS011;49858;48.956;9.076;2022-10-18T04:57:14;9.23;;;5.40;;
63714;SDS011;49858;48.956;9.076;2022-10-18T04:59:42;9.32;;;6.35;;
63714;SDS011;49858;48.956;9.076;2022-10-18T05:02:09;10.60;;;6.20;;
63714;SDS011;49858;48.956;9.076;2022-10-18T05:04:38;13.45;;;6.78;;
63714;SDS011;49858;48.956;9.076;2022-10-18T05:07:06;15.93;;;7.30;;
63714;SDS011;49858;48.956;9.076;2022-10-18T05:09:34;12.40;;;6.25;;
63714;SDS011;49858;48.956;9.076;2022-10-18T05:12:02;15.27;;;6.43;;
63714;SDS011;49858;48.956;9.076;2022-10-18T05:14:30;12.77;;;6.95;;
63714;SDS011;49858;48.956;9.076;2022-10-18T05:16:57;11.00;;;6.70;;
63714;SDS011;49858;48.956;9.076;2022-10-18T05:19:25;13.23;;;6.85;;
63714;SDS011;49858;48.956;9.076;2022-10-18T05:21:54;10.98;;;6.53;;
63714;SDS011;49858;48.956;9.076;2022-10-18T05:24:22;12.32;;;6.13;;
63714;SDS011;49858;48.956;9.076;2022-10-18T05:26:53;9.70;;;5.78;;
63714;SDS011;49858;48.956;9.076;2022-10-18T05:29:20;11.38;;;5.78;;
63714;SDS011;49858;48.956;9.076;2022-10-18T05:31:50;15.85;;;6.53;;
63714;SDS011;49858;48.956;9.076;2022-10-18T05:34:18;11.15;;;6.10;;
63714;SDS011;49858;48.956;9.076;2022-10-18T05:36:47;13.18;;;6.22;;
63714;SDS011;49858;48.956;9.076;2022-10-18T05:39:16;11.00;;;6.32;;
63714;SDS011;49858;48.956;9.076;2022-10-18T05:41:44;9.98;;;6.53;;
63714;SDS011;49858;48.956;9.076;2022-10-18T05:44:12;13.60;;;6.60;;
63714;SDS011;49858;48.956;9.076;2022-10-18T05:46:39;10.27;;;6.05;;
63714;SDS011;49858;48.956;9.076;2022-10-18T05:49:08;12.65;;;6.13;;
63714;SDS011;49858;48.956;9.076;2022-10-18T05:51:40;12.80;;;6.35;;
63714;SDS011;49858;48.956;9.076;2022-10-18T05:54:08;12.00;;;7.47;;
63714;SDS011;49858;48.956;9.076;2022-10-18T05:56:39;16.80;;;7.32;;
63714;SDS011;49858;48.956;9.076;2022-10-18T05:59:07;10.60;;;6.47;;
63714;SDS011;49858;48.956;9.076;2022-10-18T06:01:37;11.60;;;6.65;;
63714;SDS011;49858;48.956;9.076;2022-10-18T06:04:06;14.10;;;6.82;;
63714;SDS011;49858;48.956;9.076;2022-10-18T06:06:35;12.48;;;6.55;;
63714;SDS011;49858;48.956;9.076;2022-10-18T06:09:05;10.82;;;6.20;;
63714;SDS011;49858;48.956;9.076;2022-10-18T06:11:33;8.20;;;6.22;;
63714;SDS011;49858;48.956;9.076;2022-10-18T06:14:03;16.13;;;6.35;;
63714;SDS011;49858;48.956;9.076;2022-10-18T06:16:31;12.70;;;5.63;;
63714;SDS011;49858;48.956;9.076;2022-10-18T06:18:59;8.93;;;5.57;;
63714;SDS011;49858;48.956;9.076;2022-10-18T06:21:27;9.50;;;5.40;;
63714;SDS011;49858;48.956;9.076;2022-10-18T06:23:55;8.50;;;5.50;;
63714;SDS011;49858;48.956;9.076;2022-10-18T06:26:24;11.27;;;5.75;;
63714;SDS011;49858;48.956;9.076;2022-10-18T06:28:53;10.60;;;5.70;;
63714;SDS011;49858;48.956;9.076;2022-10-18T06:31:22;9.95;;;6.20;;
63714;SDS011;49858;48.956;9.076;2022-10-18T06:33:50;11.30;;;5.85;;
63714;SDS011;49858;48.956;9.076;2022-10-18T06:36:18;16.05;;;6.50;;
63714;SDS011;49858;48.956;9.076;2022-10-18T06:38:48;10.95;;;5.53;;
63714;SDS011;49858;48.956;9.076;2022-10-18T06:41:16;11.02;;;5.88;;
63714;SDS011;49858;48.956;9.076;2022-10-18T06:43:46;13.48;;;5.70;;
63714;SDS011;49858;48.956;9.076;2022-10-18T06:46:15;15.02;;;5.60;;
63714;SDS011;49858;48.956;9.076;2022-10-18T06:48:44;10.98;;;6.43;;
63714;SDS011;49858;48.956;9.076;2022-10-18T06:51:12;8.82;;;5.78;;
63714;SDS011;49858;48.956;9.076;2022-10-18T06:53:40;10.60;;;6.40;;
63714;SDS011;49858;48.956;9.076;2022-10-18T06:56:28;13.02;;;6.20;;
63714;SDS011;49858;48.956;9.076;2022-10-18T06:58:56;10.45;;;6.82;;
63714;SDS011;49858;48.956;9.076;2022-10-18T07:01:28;11.75;;;6.30;;
63714;SDS011;49858;48.956;9.076;2022-10-18T07:03:58;12.15;;;6.60;;
63714;SDS011;49858;48.956;9.076;2022-10-18T07:06:26;13.57;;;6.57;;
63714;SDS011;49858;48.956;9.076;2022-10-18T07:08:53;9.02;;;5.65;;
63714;SDS011;49858;48.956;9.076;2022-10-18T07:11:22;15.18;;;7.72;;
63714;SDS011;49858;48.956;9.076;2022-10-18T07:13:52;19.67;;;7.93;;
63714;SDS011;49858;48.956;9.076;2022-10-18T07:16:20;12.27;;;6.10;;
63714;SDS011;49858;48.956;9.076;2022-10-18T07:18:49;14.88;;;7.10;;
63714;SDS011;49858;48.956;9.076;2022-10-18T07:21:19;11.43;;;6.95;;
63714;SDS011;49858;48.956;9.076;2022-10-18T07:23:48;12.52;;;6.40;;
63714;SDS011;49858;48.956;9.076;2022-10-18T07:26:18;10.45;;;6.35;;
63714;SDS011;49858;48.956;9.076;2022-10-18T07:28:47;12.57;;;7.05;;
63714;SDS011;49858;48.956;9.076;2022-10-18T07:31:16;15.07;;;6.13;;
63714;SDS011;49858;48.956;9.076;2022-10-18T07:33:44;15.13;;;7.00;;
63714;SDS011;49858;48.956;9.076;2022-10-18T07:36:12;13.98;;;6.70;;
63714;SDS011;49858;48.956;9.076;2022-10-18T07:38:41;18.63;;;7.03;;
63714;SDS011;49858;48.956;9.076;2022-10-18T07:41:10;10.60;;;6.35;;
63714;SDS011;49858;48.956;9.076;2022-10-18T07:43:40;11.85;;;6.45;;
63714;SDS011;49858;48.956;9.076;2022-10-18T07:46:09;12.13;;;6.53;;
63714;SDS011;49858;48.956;9.076;2022-10-18T07:48:37;15.68;;;6.05;;
63714;SDS011;49858;48.956;9.076;2022-10-18T07:51:05;13.88;;;6.30;;
63714;SDS011;49858;48.956;9.076;2022-10-18T07:53:34;11.85;;;6.90;;
63714;SDS011;49858;48.956;9.076;2022-10-18T07:56:04;13.65;;;7.20;;
63714;SDS011;49858;48.956;9.076;2022-10-18T07:58:35;14.82;;;7.60;;
63714;SDS011;49858;48.956;9.076;2022-10-18T08:01:03;10.27;;;6.75;;
63714;SDS011;49858;48.956;9.076;2022-10-18T08:03:31;15.63;;;6.18;;
63714;SDS011;49858;48.956;9.076;2022-10-18T08:05:59;13.48;;;6.13;;
63714;SDS011;49858;48.956;9.076;2022-10-18T08:08:28;13.20;;;6.20;;
63714;SDS011;49858;48.956;9.076;2022-10-18T08:11:00;12.32;;;6.10;;
63714;SDS011;49858;48.956;9.076;2022-10-18T08:13:30;12.48;;;6.45;;
63714;SDS011;49858;48.956;9.076;2022-10-18T08:15:59;11.35;;;6.53;;
63714;SDS011;49858;48.956;9.076;2022-10-18T08:18:27;14.00;;;5.72;;
63714;SDS011;49858;48.956;9.076;2022-10-18T08:20:55;11.02;;;6.10;;
63714;SDS011;49858;48.956;9.076;2022-10-18T08:23:25;16.95;;;8.35;;
63714;SDS011;49858;48.956;9.076;2022-10-18T08:25:53;16.00;;;7.75;;
63714;SDS011;49858;48.956;9.076;2022-10-18T08:28:21;11.05;;;6.13;;
63714;SDS011;49858;48.956;9.076;2022-10-18T08:30:50;8.38;;;5.50;;
63714;SDS011;49858;48.956;9.076;2022-10-18T08:33:18;13.45;;;5.88;;
63714;SDS011;49858;48.956;9.076;2022-10-18T08:35:53;11.25;;;5.90;;
63714;SDS011;49858;48.956;9.076;2022-10-18T08:38:21;13.95;;;5.90;;
63714;SDS011;49858;48.956;9.076;2022-10-18T08:40:49;10.65;;;5.53;;
63714;SDS011;49858;48.956;9.076;2022-10-18T08:43:20;9.48;;;5.78;;
63714;SDS011;49858;48.956;9.076;2022-10-18T08:45:57;14.07;;;4.88;;
63714;SDS011;49858;48.956;9.076;2022-10-18T08:48:28;8.57;;;5.50;;
63714;SDS011;49858;48.956;9.076;2022-10-18T08:51:00;14.52;;;5.97;;
63714;SDS011;49858;48.956;9.076;2022-10-18T08:53:31;9.55;;;5.90;;
63714;SDS011;49858;48.956;9.076;2022-10-18T08:56:06;13.52;;;6.53;;
63714;SDS011;49858;48.956;9.076;2022-10-18T08:58:40;14.00;;;6.20;;
63714;SDS011;49858;48.956;9.076;2022-10-18T09:01:14;9.38;;;5.78;;
63714;SDS011;49858;48.956;9.076;2022-10-18T09:04:02;18.15;;;6.07;;
63714;SDS011;49858;48.956;9.076;2022-10-18T09:06:38;10.48;;;5.63;;
63714;SDS011;49858;48.956;9.076;2022-10-18T09:09:24;12.15;;;5.82;;
63714;SDS011;49858;48.956;9.076;2022-10-18T09:12:02;9.98;;;4.93;;
63714;SDS011;49858;48.956;9.076;2022-10-18T09:14:49;10.32;;;4.63;;
63714;SDS011;49858;48.956;9.076;2022-10-18T09:17:33;10.25;;;5.22;;
63714;SDS011;49858;48.956;9.076;2022-10-18T09:20:12;11.70;;;5.10;;
63714;SDS011;49858;48.956;9.076;2022-10-18T09:22:50;10.50;;;4.57;;
63714;SDS011;49858;48.956;9.076;2022-10-18T09:25:20;6.57;;;3.80;;
63714;SDS011;49858;48.956;9.076;2022-10-18T09:27:51;9.52;;;4.30;;
63714;SDS011;49858;48.956;9.076;2022-10-18T09:30:24;7.28;;;3.90;;
63714;SDS011;49858;48.956;9.076;2022-10-18T09:33:02;7.90;;;3.83;;
63714;SDS011;49858;48.956;9.076;2022-10-18T09:35:39;7.57;;;3.95;;
63714;SDS011;49858;48.956;9.076;2022-10-18T09:38:12;10.23;;;3.70;;
63714;SDS011;49858;48.956;9.076;2022-10-18T09:40:45;7.43;;;2.88;;
63714;SDS011;49858;48.956;9.076;2022-10-18T09:43:19;9.07;;;4.40;;
63714;SDS011;49858;48.956;9.076;2022-10-18T09:45:51;7.28;;;4.07;;
63714;SDS011;49858;48.956;9.076;2022-10-18T09:48:22;5.70;;;3.58;;
63714;SDS011;49858;48.956;9.076;2022-10-18T09:50:55;10.20;;;3.20;;
63714;SDS011;49858;48.956;9.076;2022-10-18T09:53:29;6.47;;;2.95;;
63714;SDS011;49858;48.956;9.076;2022-10-18T09:56:04;6.68;;;3.72;;
63714;SDS011;49858;48.956;9.076;2022-10-18T09:58:39;8.95;;;3.75;;
63714;SDS011;49858;48.956;9.076;2022-10-18T10:01:09;9.13;;;3.05;;
63714;SDS011;49858;48.956;9.076;2022-10-18T10:03:41;8.05;;;3.30;;
63714;SDS011;49858;48.956;9.076;2022-10-18T10:06:16;8.65;;;3.45;;
63714;SDS011;49858;48.956;9.076;2022-10-18T10:08:53;7.15;;;3.50;;
63714;SDS011;49858;48.956;9.076;2022-10-18T10:11:25;5.45;;;3.70;;
63714;SDS011;49858;48.956;9.076;2022-10-18T10:14:00;5.40;;;3.50;;
63714;SDS011;49858;48.956;9.076;2022-10-18T10:16:41;12.45;;;2.67;;
63714;SDS011;49858;48.956;9.076;2022-10-18T10:19:26;6.53;;;2.75;;
63714;SDS011;49858;48.956;9.076;2022-10-18T10:21:56;4.03;;;1.73;;
63714;SDS011;49858;48.956;9.076;2022-10-18T10:24:32;5.50;;;3.55;;
63714;SDS011;49858;48.956;9.076;2022-10-18T10:27:04;7.13;;;2.60;;
63714;SDS011;49858;48.956;9.076;2022-10-18T10:29:46;6.85;;;2.70;;
63714;SDS011;49858;48.956;9.076;2022-10-18T10:32:19;6.10;;;2.78;;
63714;SDS011;49858;48.956;9.076;2022-10-18T10:34:50;5.30;;;2.70;;
63714;SDS011;49858;48.956;9.076;2022-10-18T10:37:23;5.55;;;3.25;;
63714;SDS011;49858;48.956;9.076;2022-10-18T10:40:06;6.03;;;2.70;;
63714;SDS011;49858;48.956;9.076;2022-10-18T10:43:03;4.63;;;2.85;;
63714;SDS011;49858;48.956;9.076;2022-10-18T10:48:27;5.22;;;2.30;;
63714;SDS011;49858;48.956;9.076;2022-10-18T10:51:02;3.45;;;2.60;;
63714;SDS011;49858;48.956;9.076;2022-10-18T10:53:34;4.57;;;2.90;;
63714;SDS011;49858;48.956;9.076;2022-10-18T10:56:05;4.03;;;2.40;;
63714;SDS011;49858;48.956;9.076;2022-10-18T10:58:48;4.70;;;2.70;;
63714;SDS011;49858;48.956;9.076;2022-10-18T11:01:23;8.55;;;3.00;;
63714;SDS011;49858;48.956;9.076;2022-10-18T11:03:56;3.28;;;1.83;;
63714;SDS011;49858;48.956;9.076;2022-10-18T11:06:32;4.95;;;2.50;;
63714;SDS011;49858;48.956;9.076;2022-10-18T11:09:08;3.30;;;2.50;;
63714;SDS011;49858;48.956;9.076;2022-10-18T11:11:48;6.60;;;2.88;;
63714;SDS011;49858;48.956;9.076;2022-10-18T11:14:26;5.88;;;3.08;;
63714;SDS011;49858;48.956;9.076;2022-10-18T11:16:58;6.68;;;2.63;;
63714;SDS011;49858;48.956;9.076;2022-10-18T11:19:36;6.25;;;2.30;;
63714;SDS011;49858;48.956;9.076;2022-10-18T11:22:11;2.55;;;1.90;;
63714;SDS011;49858;48.956;9.076;2022-10-18T11:24:43;8.30;;;3.00;;
63714;SDS011;49858;48.956;9.076;2022-10-18T11:27:13;4.40;;;3.42;;
63714;SDS011;49858;48.956;9.076;2022-10-18T11:29:49;4.75;;;2.38;;
63714;SDS011;49858;48.956;9.076;2022-10-18T11:32:26;6.50;;;2.60;;
63714;SDS011;49858;48.956;9.076;2022-10-18T11:35:03;6.20;;;3.30;;
63714;SDS011;49858;48.956;9.076;2022-10-18T11:37:48;7.07;;;2.63;;
63714;SDS011;49858;48.956;9.076;2022-10-18T11:40:28;5.43;;;3.05;;
63714;SDS011;49858;48.956;9.076;2022-10-18T11:43:05;10.85;;;3.08;;
63714;SDS011;49858;48.956;9.076;2022-10-18T11:45:44;4.38;;;2.60;;
63714;SDS011;49858;48.956;9.076;2022-10-18T11:48:28;9.38;;;2.85;;
63714;SDS011;49858;48.956;9.076;2022-10-18T11:51:08;5.32;;;2.40;;
63714;SDS011;49858;48.956;9.076;2022-10-18T11:53:44;2.40;;;1.70;;
63714;SDS011;49858;48.956;9.076;2022-10-18T11:56:26;5.38;;;2.92;;
63714;SDS011;49858;48.956;9.076;2022-10-18T11:59:12;7.43;;;3.13;;
63714;SDS011;49858;48.956;9.076;2022-10-18T12:01:52;6.82;;;2.88;;
63714;SDS011;49858;48.956;9.076;2022-10-18T12:04:32;8.50;;;3.10;;
63714;SDS011;49858;48.956;9.076;2022-10-18T12:09:51;4.97;;;2.83;;
63714;SDS011;49858;48.956;9.076;2022-10-18T12:12:22;3.95;;;2.55;;
63714;SDS011;49858;48.956;9.076;2022-10-18T12:14:55;3.60;;;2.70;;
63714;SDS011;49858;48.956;9.076;2022-10-18T12:17:27;4.55;;;2.65;;
63714;SDS011;49858;48.956;9.076;2022-10-18T12:20:15;6.85;;;3.47;;
63714;SDS011;49858;48.956;9.076;2022-10-18T12:22:48;4.38;;;2.47;;
63714;SDS011;49858;48.956;9.076;2022-10-18T12:25:21;7.80;;;3.17;;
63714;SDS011;49858;48.956;9.076;2022-10-18T12:27:51;3.30;;;1.85;;
63714;SDS011;49858;48.956;9.076;2022-10-18T12:30:23;3.60;;;2.38;;
63714;SDS011;49858;48.956;9.076;2022-10-18T12:35:50;8.82;;;2.72;;
63714;SDS011;49858;48.956;9.076;2022-10-18T12:38:27;3.60;;;2.03;;
63714;SDS011;49858;48.956;9.076;2022-10-18T12:40:58;4.00;;;2.42;;
63714;SDS011;49858;48.956;9.076;2022-10-18T12:43:27;2.78;;;2.28;;
63714;SDS011;49858;48.956;9.076;2022-10-18T12:46:02;3.50;;;2.60;;
63714;SDS011;49858;48.956;9.076;2022-10-18T12:48:39;3.28;;;2.45;;
63714;SDS011;49858;48.956;9.076;2022-10-18T12:51:12;6.43;;;3.15;;
63714;SDS011;49858;48.956;9.076;2022-10-18T12:53:41;5.47;;;2.80;;
63714;SDS011;49858;48.956;9.076;2022-10-18T13:02:20;5.47;;;3.60;;
63714;SDS011;49858;48.956;9.076;2022-10-18T13:04:49;8.93;;;3.53;;
63714;SDS011;49858;48.956;9.076;2022-10-18T13:07:19;8.07;;;3.75;;
63714;SDS011;49858;48.956;9.076;2022-10-18T13:13:02;5.88;;;3.35;;
63714;SDS011;49858;48.956;9.076;2022-10-18T13:16:08;3.83;;;3.40;;
63714;SDS011;49858;48.956;9.076;2022-10-18T13:18:51;5.57;;;2.85;;
63714;SDS011;49858;48.956;9.076;2022-10-18T13:21:22;4.63;;;3.08;;
63714;SDS011;49858;48.956;9.076;2022-10-18T13:24:03;5.50;;;3.05;;
63714;SDS011;49858;48.956;9.076;2022-10-18T13:26:45;4.65;;;2.40;;
63714;SDS011;49858;48.956;9.076;2022-10-18T13:29:49;3.55;;;2.67;;
63714;SDS011;49858;48.956;9.076;2022-10-18T13:32:31;6.63;;;2.90;;
63714;SDS011;49858;48.956;9.076;2022-10-18T13:35:03;3.95;;;3.15;;
63714;SDS011;49858;48.956;9.076;2022-10-18T13:38:16;7.97;;;2.67;;
